Terminal Aerodrome Forecast
Issued by NWS

Home | Current Version | Previous Version | Text Only | Print | Product List | Glossary On
Versions: 1 2 3 4 5 6 7 8 9 10 11 12 13 14 15
000
FTUS45 KABQ 302344
TAFSAF
TAF
KSAF 302344Z 3100/3124 15008KT P6SM VCTS SCT050CB BKN090
      TEMPO 3100/3102 VRB15G25KT -SHRA BKN050
     FM310200 14008KT P6SM VCSH SCT035 BKN050
     FM310600 03006KT P6SM SCT025 OVC050
     FM311800 21008KT P6SM BKN040 BKN070
     FM312100 21010KT P6SM VCTS BKN050CB=

USA.gov is the U.S. government's official web portal to all federal, state and local government web resources and services.